Time;durP1;ratioP1;P1;durP2;ratioP2;P2;SDS_P1;SDS_P2;PMS_P1;PMS_P2;Temp;Humidity;BMP_temperature;BMP_pressure;BME280_temperature;BME280_humidity;BME280_pressure;Samples;Min_cycle;Max_cycle;Signal;HPM_P1;HPM_P2
2023/04/19 00:02:10;;;;;;;18.92;14.55;;;;;;;8.60;86.02;102635.63;5055646;28;20486;-80
2023/04/19 00:04:36;;;;;;;17.92;15.05;;;;;;;8.56;85.91;102632.31;5055546;28;20025;-81
2023/04/19 00:07:02;;;;;;;17.77;14.40;;;;;;;8.51;85.74;102602.38;5055500;28;20155;-80
2023/04/19 00:09:27;;;;;;;20.80;15.13;;;;;;;8.94;85.73;102666.50;5055582;28;20111;-81
2023/04/19 00:11:53;;;;;;;18.35;13.65;;;;;;;8.95;85.91;102675.94;5055538;28;20029;-80
2023/04/19 00:14:18;;;;;;;18.52;14.70;;;;;;;8.78;86.06;102649.75;5055622;28;20024;-79
2023/04/19 00:16:44;;;;;;;21.05;14.88;;;;;;;8.58;85.64;102606.50;5055624;28;20032;-80
2023/04/19 00:19:10;;;;;;;17.05;13.90;;;;;;;8.82;85.83;102636.75;5055293;28;20017;-81
2023/04/19 00:21:35;;;;;;;19.52;14.32;;;;;;;9.02;86.07;102663.72;5055574;28;20116;-80
2023/04/19 00:24:02;;;;;;;18.90;14.32;;;;;;;8.89;85.91;102643.44;5055099;28;20112;-80
2023/04/19 00:26:27;;;;;;;17.05;14.00;;;;;;;9.05;86.02;102664.50;5054970;28;20017;-79
2023/04/19 00:28:52;;;;;;;18.73;15.20;;;;;;;9.08;85.81;102666.97;5055304;28;20466;-80
2023/04/19 00:31:17;;;;;;;17.13;14.73;;;;;;;9.06;85.69;102658.44;5053636;28;20120;-80
2023/04/19 00:33:43;;;;;;;18.98;14.52;;;;;;;9.13;85.82;102661.69;5055165;28;20032;-81
2023/04/19 00:36:09;;;;;;;18.15;14.98;;;;;;;9.15;85.60;102657.34;5055125;28;20057;-80
2023/04/19 00:38:34;;;;;;;18.17;14.52;;;;;;;9.12;86.08;102657.41;5053205;28;20045;-79
2023/04/19 00:41:00;;;;;;;19.00;14.75;;;;;;;9.15;86.33;102657.34;5055019;28;20023;-80
2023/04/19 00:43:25;;;;;;;20.13;16.17;;;;;;;9.13;85.92;102644.47;5054954;28;20486;-79
2023/04/19 00:45:51;;;;;;;17.73;14.85;;;;;;;9.02;86.14;102633.63;5054945;28;20032;-80
2023/04/19 00:48:16;;;;;;;18.48;15.23;;;;;;;8.98;86.03;102621.72;5054861;28;20100;-82
2023/04/19 00:50:43;;;;;;;18.17;14.25;;;;;;;9.18;86.52;102652.09;5054764;28;20025;-80
2023/04/19 00:53:09;;;;;;;19.33;14.80;;;;;;;8.78;86.18;102578.47;5054734;28;20029;-80
2023/04/19 00:55:37;;;;;;;20.15;15.13;;;;;;;9.20;86.84;102651.16;5054645;28;20159;-78
2023/04/19 00:58:05;;;;;;;20.48;15.32;;;;;;;9.19;87.09;102649.47;5054304;28;20052;-80
2023/04/19 01:00:31;;;;;;;19.85;14.90;;;;;;;9.20;87.03;102650.31;5054466;28;20048;-79
2023/04/19 01:02:57;;;;;;;18.15;13.82;;;;;;;9.02;87.20;102618.16;5054125;28;20390;-81
2023/04/19 01:05:22;;;;;;;19.58;15.10;;;;;;;9.14;87.29;102637.59;5054226;28;20021;-80
2023/04/19 01:07:47;;;;;;;17.73;14.30;;;;;;;9.09;87.01;102627.44;5052633;28;20067;-81
2023/04/19 01:10:13;;;;;;;18.70;14.48;;;;;;;8.96;87.12;102609.78;5054454;28;20029;-81
2023/04/19 01:12:38;;;;;;;17.63;14.00;;;;;;;9.19;87.84;102651.22;5054294;28;20021;-81
2023/04/19 01:15:04;;;;;;;18.08;14.95;;;;;;;9.18;87.94;102639.22;5054072;28;20124;-82
2023/04/19 01:17:31;;;;;;;18.67;14.68;;;;;;;9.11;87.95;102633.38;5054587;28;20100;-84
2023/04/19 01:20:07;;;;;;;18.48;15.43;;;;;;;9.15;88.46;102639.31;5053178;28;20071;-81
2023/04/19 01:22:36;;;;;;;18.88;15.23;;;;;;;9.02;88.46;102622.47;5054344;28;20359;-83
2023/04/19 01:25:03;;;;;;;19.88;14.77;;;;;;;9.04;88.64;102626.69;5054093;28;20017;-83
2023/04/19 01:27:29;;;;;;;20.67;14.88;;;;;;;8.96;88.59;102609.78;5053929;28;20033;-84
2023/04/19 01:29:54;;;;;;;20.48;14.32;;;;;;;8.88;89.13;102595.38;5054166;28;20032;-84
2023/04/19 01:32:20;;;;;;;17.55;13.60;;;;;;;9.16;89.13;102646.16;5054109;28;20124;-84
2023/04/19 01:34:46;;;;;;;19.48;15.13;;;;;;;9.00;89.35;102614.78;5054102;28;20025;-81
2023/04/19 01:37:11;;;;;;;20.17;15.60;;;;;;;9.20;89.28;102642.59;5053891;28;20032;-83
2023/04/19 01:39:37;;;;;;;18.92;14.85;;;;;;;9.14;89.58;102629.88;5053672;28;20108;-83
2023/04/19 01:42:03;;;;;;;20.92;15.23;;;;;;;8.80;89.57;102566.41;5053595;28;20025;-85
2023/04/19 01:44:28;;;;;;;19.17;14.23;;;;;;;8.88;89.86;102587.66;5052030;28;20436;-83
2023/04/19 01:46:54;;;;;;;19.65;15.52;;;;;;;9.14;89.71;102607.53;5053941;28;20226;-83
2023/04/19 01:49:20;;;;;;;18.27;15.13;;;;;;;9.28;90.07;102634.66;5053616;28;20039;-83
2023/04/19 01:51:45;;;;;;;20.80;15.02;;;;;;;9.24;90.29;102623.56;5052105;28;20033;-82
2023/04/19 01:54:10;;;;;;;18.70;14.40;;;;;;;9.29;90.62;102628.59;5053453;28;20025;-83
2023/04/19 01:56:36;;;;;;;19.63;15.40;;;;;;;9.12;90.79;102604.13;5053232;28;20081;-84
2023/04/19 01:59:02;;;;;;;19.73;15.52;;;;;;;9.24;90.97;102618.41;5053155;28;20109;-83
2023/04/19 02:01:28;;;;;;;20.95;15.57;;;;;;;9.35;90.86;102626.69;5053521;28;20398;-82
2023/04/19 02:03:53;;;;;;;19.63;15.82;;;;;;;9.21;90.57;102605.59;5053612;28;20017;-81
2023/04/19 02:06:19;;;;;;;22.00;16.08;;;;;;;9.38;90.79;102620.59;5053574;28;20053;-82
2023/04/19 02:08:44;;;;;;;20.90;16.30;;;;;;;9.39;91.16;102622.28;5053171;28;20078;-81
2023/04/19 02:11:13;;;;;;;21.13;15.15;;;;;;;9.31;91.10;102601.88;5053247;28;20052;-81
2023/04/19 02:13:39;;;;;;;22.35;16.42;;;;;;;9.40;91.48;102617.06;5053023;28;20025;-78
2023/04/19 02:16:05;;;;;;;21.67;16.27;;;;;;;9.31;91.04;102607.03;5053108;28;20037;-82
2023/04/19 02:18:31;;;;;;;21.17;15.25;;;;;;;9.21;91.19;102590.16;5053217;28;20028;-78
2023/04/19 02:20:57;;;;;;;21.85;15.45;;;;;;;9.33;91.51;102615.56;5053315;28;20029;-82
2023/04/19 02:23:23;;;;;;;19.55;15.75;;;;;;;9.32;91.81;102620.75;5053070;28;20071;-78
2023/04/19 02:25:49;;;;;;;19.17;15.30;;;;;;;9.27;92.12;102614.91;5051086;28;20065;-81
2023/04/19 02:28:14;;;;;;;22.33;16.30;;;;;;;9.02;92.20;102579.53;5052928;28;20104;-78
2023/04/19 02:30:40;;;;;;;21.33;16.10;;;;;;;9.22;92.66;102616.75;5053073;28;20067;-78
2023/04/19 02:33:05;;;;;;;20.52;14.68;;;;;;;9.20;92.54;102617.66;5052905;28;20029;-79
2023/04/19 02:35:30;;;;;;;20.20;15.70;;;;;;;9.04;93.10;102607.81;5052801;28;20025;-78
2023/04/19 02:37:56;;;;;;;18.10;14.77;;;;;;;9.14;92.81;102625.59;5053025;28;20021;-77
2023/04/19 02:40:22;;;;;;;20.80;15.48;;;;;;;9.12;93.08;102623.91;5052552;28;20482;-77
2023/04/19 02:42:47;;;;;;;21.30;15.48;;;;;;;9.11;93.07;102617.06;5052624;28;20033;-81
2023/04/19 02:45:13;;;;;;;19.60;15.13;;;;;;;9.12;92.92;102626.50;5052868;28;20033;-79
2023/04/19 02:47:38;;;;;;;20.17;14.93;;;;;;;9.09;92.67;102618.84;5050291;28;20513;-79
2023/04/19 02:50:04;;;;;;;17.05;14.00;;;;;;;9.08;92.93;102622.31;5052742;28;20041;-80
2023/04/19 02:52:30;;;;;;;21.05;14.90;;;;;;;9.06;92.86;102621.53;5052768;28;20055;-80
2023/04/19 02:54:55;;;;;;;21.75;14.48;;;;;;;8.57;93.03;102546.44;5052579;28;20056;-78
2023/04/19 02:57:20;;;;;;;17.45;13.32;;;;;;;9.03;93.06;102621.59;5052516;28;20032;-79
2023/04/19 02:59:46;;;;;;;18.95;14.40;;;;;;;9.00;93.19;102624.25;5052182;28;20401;-80
2023/04/19 03:02:11;;;;;;;18.20;14.93;;;;;;;9.00;93.28;102621.69;5052292;28;20036;-79
2023/04/19 03:04:37;;;;;;;18.58;13.68;;;;;;;9.00;93.04;102627.69;5052461;28;20044;-78
2023/04/19 03:07:02;;;;;;;20.77;14.23;;;;;;;9.00;93.26;102629.41;5052273;28;20094;-79
2023/04/19 03:09:28;;;;;;;18.67;13.80;;;;;;;8.98;93.26;102623.47;5052601;28;20394;-79
2023/04/19 03:11:53;;;;;;;17.52;13.70;;;;;;;8.42;93.29;102533.13;5052513;28;20017;-79
2023/04/19 03:14:18;;;;;;;17.88;13.73;;;;;;;8.98;93.44;102626.03;5052218;28;20036;-79
2023/04/19 03:16:44;;;;;;;15.95;13.00;;;;;;;8.99;93.23;102627.72;5052251;28;20021;-79
2023/04/19 03:19:11;;;;;;;19.77;14.15;;;;;;;8.86;93.52;102601.47;5052556;28;20025;-76
2023/04/19 03:21:37;;;;;;;19.83;13.15;;;;;;;9.00;93.42;102616.53;5052686;28;20031;-78
2023/04/19 03:24:02;;;;;;;17.75;13.27;;;;;;;8.99;93.66;102620.00;5052161;28;20103;-79
2023/04/19 03:26:28;;;;;;;17.73;14.05;;;;;;;8.99;93.51;102617.41;5052463;28;20045;-78
2023/04/19 03:28:53;;;;;;;18.42;13.90;;;;;;;8.98;93.49;102619.16;5056454;28;20017;-78
2023/04/19 03:31:19;;;;;;;18.90;13.77;;;;;;;8.91;93.47;102600.44;5056193;28;20112;-79
2023/04/19 03:33:44;;;;;;;17.30;12.60;;;;;;;9.02;93.32;102618.16;5056157;28;20025;-78
2023/04/19 03:36:09;;;;;;;18.65;12.55;;;;;;;9.00;93.67;102608.81;5056064;28;20032;-77
2023/04/19 03:38:35;;;;;;;17.50;12.93;;;;;;;8.74;93.48;102570.88;5055956;28;20025;-78
2023/04/19 03:41:01;;;;;;;16.30;12.57;;;;;;;9.01;93.88;102605.34;5056092;28;20025;-76
2023/04/19 03:43:26;;;;;;;17.55;13.18;;;;;;;8.99;93.75;102607.97;5056199;28;20039;-77
2023/04/19 03:45:51;;;;;;;15.93;12.93;;;;;;;8.98;93.95;102613.16;5055925;28;20041;-76
2023/04/19 03:48:17;;;;;;;18.77;12.98;;;;;;;8.97;94.10;102606.31;5056022;28;20087;-79
2023/04/19 03:50:42;;;;;;;19.17;13.90;;;;;;;8.86;94.22;102606.63;5055888;28;20108;-79
2023/04/19 03:53:07;;;;;;;18.05;14.00;;;;;;;8.90;93.81;102609.06;5055927;28;20453;-78
2023/04/19 03:55:33;;;;;;;16.73;12.77;;;;;;;8.93;94.13;102615.00;5054636;28;20029;-79
2023/04/19 03:57:58;;;;;;;15.73;12.80;;;;;;;8.85;94.29;102600.63;5056044;28;20028;-80
2023/04/19 04:00:24;;;;;;;17.48;13.60;;;;;;;8.89;93.97;102614.25;5055815;28;20419;-79
2023/04/19 04:02:49;;;;;;;16.52;12.63;;;;;;;8.88;93.84;102610.00;5055556;28;20474;-78
2023/04/19 04:05:14;;;;;;;19.05;13.32;;;;;;;8.86;93.81;102614.34;5055813;28;20497;-78
2023/04/19 04:07:40;;;;;;;16.98;12.55;;;;;;;8.26;93.63;102514.66;5053929;28;20609;-78
2023/04/19 04:10:06;;;;;;;19.05;12.65;;;;;;;8.79;93.96;102611.09;5054210;28;20032;-79
2023/04/19 04:12:31;;;;;;;17.95;12.02;;;;;;;8.62;94.09;102580.63;5055453;28;20032;-79
2023/04/19 04:14:56;;;;;;;15.55;11.93;;;;;;;8.74;93.97;102612.91;5055496;28;20090;-78
2023/04/19 04:17:23;;;;;;;19.67;13.15;;;;;;;8.71;94.01;102610.44;5055306;28;20099;-77
2023/04/19 04:19:48;;;;;;;17.80;13.23;;;;;;;8.71;93.29;102613.00;5055353;28;20017;-78
2023/04/19 04:22:14;;;;;;;18.00;11.60;;;;;;;8.66;93.57;102617.47;5055462;28;20035;-79
2023/04/19 04:24:43;;;;;;;14.73;11.50;;;;;;;8.17;93.56;102535.47;5053779;28;20465;-78
2023/04/19 04:27:12;;;;;;;15.73;11.82;;;;;;;8.57;93.33;102615.13;5054957;28;20021;-79
2023/04/19 04:29:38;;;;;;;14.25;10.07;;;;;;;8.22;93.10;102567.91;5055245;28;20029;-79
2023/04/19 04:32:09;;;;;;;14.20;10.70;;;;;;;8.44;93.17;102624.03;5054881;28;20021;-79
2023/04/19 04:34:35;;;;;;;15.13;10.45;;;;;;;8.33;93.28;102619.97;5055048;28;20025;-79
2023/04/19 04:37:01;;;;;;;13.57;10.65;;;;;;;8.24;93.34;102620.19;5054927;28;20451;-80
2023/04/19 04:39:26;;;;;;;13.25;9.50;;;;;;;8.15;92.98;102617.00;5053769;28;20025;-79
2023/04/19 04:41:52;;;;;;;14.52;10.30;;;;;;;8.10;93.06;102624.84;5054842;28;20025;-77
2023/04/19 04:44:19;;;;;;;12.80;9.32;;;;;;;8.04;92.87;102625.81;5054789;28;20069;-78
2023/04/19 04:46:44;;;;;;;15.65;9.45;;;;;;;7.98;93.13;102628.53;5053354;28;20029;-78
2023/04/19 04:49:10;;;;;;;11.93;9.50;;;;;;;7.93;93.21;102634.66;5054799;28;20039;-77
2023/04/19 04:51:36;;;;;;;11.82;9.30;;;;;;;7.90;93.01;102633.00;5053446;28;20124;-79
2023/04/19 04:54:02;;;;;;;12.63;9.80;;;;;;;7.89;93.18;102633.06;5054622;28;20029;-78
2023/04/19 04:56:27;;;;;;;14.00;10.45;;;;;;;7.88;93.39;102636.50;5054731;28;20025;-78
2023/04/19 04:58:52;;;;;;;13.95;9.57;;;;;;;7.84;93.70;102637.44;5054425;28;20037;-79
2023/04/19 05:01:19;;;;;;;15.18;10.43;;;;;;;7.81;93.80;102638.38;5054515;28;20035;-80
2023/04/19 05:03:44;;;;;;;13.45;10.10;;;;;;;7.60;93.78;102600.28;5054579;28;20029;-81
2023/04/19 05:06:10;;;;;;;13.30;9.63;;;;;;;7.77;93.83;102626.47;5052884;28;20565;-78
2023/04/19 05:08:35;;;;;;;15.65;10.65;;;;;;;7.75;94.43;102630.78;5054646;28;20382;-78
2023/04/19 05:11:01;;;;;;;12.88;9.75;;;;;;;7.74;94.36;102632.50;5052673;28;20519;-79
2023/04/19 05:13:26;;;;;;;13.57;10.05;;;;;;;7.46;94.42;102593.69;5054435;28;20017;-79
2023/04/19 05:15:51;;;;;;;15.70;10.43;;;;;;;7.73;94.58;102640.25;5052745;28;20033;-78
2023/04/19 05:18:17;;;;;;;12.77;9.63;;;;;;;7.71;94.71;102630.00;5054149;28;20112;-78
2023/04/19 05:20:42;;;;;;;13.48;9.90;;;;;;;7.72;94.62;102636.00;5054185;28;20059;-82
2023/04/19 05:23:10;;;;;;;15.25;11.43;;;;;;;7.70;94.64;102640.34;5054066;28;20025;-81
2023/04/19 05:25:35;;;;;;;14.23;9.70;;;;;;;7.73;94.11;102642.81;5054223;28;20371;-78
2023/04/19 05:28:02;;;;;;;13.07;9.68;;;;;;;7.37;93.90;102580.19;5053812;28;20033;-81
2023/04/19 05:30:27;;;;;;;14.13;10.50;;;;;;;7.74;93.48;102640.22;5054090;28;20090;-82
2023/04/19 05:32:53;;;;;;;14.63;9.80;;;;;;;7.76;93.37;102642.75;5053810;28;20545;-82
2023/04/19 05:35:19;;;;;;;15.68;10.30;;;;;;;7.77;93.46;102647.03;5053617;28;20075;-82
2023/04/19 05:37:44;;;;;;;13.88;10.55;;;;;;;7.47;92.87;102602.25;5054136;28;20029;-82
2023/04/19 05:40:10;;;;;;;15.13;9.85;;;;;;;7.80;92.61;102649.53;5054016;28;20374;-83
2023/04/19 05:42:37;;;;;;;12.15;9.35;;;;;;;7.89;91.89;102644.19;5051374;28;20033;-82
2023/04/19 05:45:03;;;;;;;11.98;8.73;;;;;;;7.98;91.50;102638.00;5053794;28;20394;-81
2023/04/19 05:47:28;;;;;;;12.23;8.98;;;;;;;8.12;90.78;102648.78;5053845;28;20378;-83
2023/04/19 05:49:53;;;;;;;11.80;8.05;;;;;;;7.84;90.01;102575.72;5053229;28;20020;-80
2023/04/19 05:52:19;;;;;;;12.80;8.98;;;;;;;8.47;89.01;102640.25;5053411;28;20112;-80
2023/04/19 05:54:44;;;;;;;12.00;9.02;;;;;;;8.38;88.17;102604.44;5053203;28;20115;-81
2023/04/19 05:57:09;;;;;;;11.30;8.38;;;;;;;8.71;86.36;102636.19;5053318;28;20060;-80
2023/04/19 05:59:35;;;;;;;13.18;8.95;;;;;;;8.76;86.06;102631.78;5053427;28;20041;-82
2023/04/19 06:02:00;;;;;;;11.27;8.00;;;;;;;8.67;83.70;102614.00;5053481;28;20356;-82
2023/04/19 06:04:26;;;;;;;11.90;7.90;;;;;;;8.95;84.08;102646.72;5053369;28;20438;-81
2023/04/19 06:06:51;;;;;;;14.15;8.88;;;;;;;8.95;81.50;102616.69;5050283;28;20060;-77
2023/04/19 06:09:17;;;;;;;11.57;8.02;;;;;;;9.91;77.74;102637.03;5033482;28;20030;-80
2023/04/19 06:11:43;;;;;;;10.27;7.22;;;;;;;11.15;71.53;102631.13;5015287;28;20058;-80
2023/04/19 06:14:09;;;;;;;12.18;7.75;;;;;;;12.43;68.71;102640.78;5048659;28;20443;-78
2023/04/19 06:16:35;;;;;;;9.40;6.90;;;;;;;13.27;62.88;102639.72;5060437;22;20045;-76
2023/04/19 06:19:00;;;;;;;9.70;6.60;;;;;;;13.29;60.72;102606.78;5052838;28;20033;-78
2023/04/19 06:21:25;;;;;;;9.93;6.75;;;;;;;13.54;59.36;102640.22;5053308;28;20044;-79
2023/04/19 06:23:51;;;;;;;10.35;6.38;;;;;;;13.80;57.85;102646.78;5053076;28;20056;-79
2023/04/19 06:26:22;;;;;;;11.75;6.88;;;;;;;12.67;57.74;102434.13;5058848;23;20076;-79
2023/04/19 06:28:51;;;;;;;9.52;6.13;;;;;;;12.82;55.07;102438.63;5052619;28;20024;-78
2023/04/19 06:31:38;;;;;;;9.30;6.28;;;;;;;14.19;56.85;102644.03;5052599;28;20162;-80
2023/04/19 06:34:03;;;;;;;9.35;6.25;;;;;;;12.71;53.71;102425.31;5052211;28;20051;-77
2023/04/19 06:39:08;;;;;;;9.95;6.57;;;;;;;13.88;53.88;102584.94;5059205;22;20073;-78
2023/04/19 06:41:34;;;;;;;9.13;6.32;;;;;;;14.29;52.20;102644.41;5052882;28;20072;-75
2023/04/19 06:43:59;;;;;;;9.90;6.05;;;;;;;14.24;51.32;102646.38;5052834;28;20403;-80
2023/04/19 06:46:26;;;;;;;11.15;7.22;;;;;;;13.96;51.46;102639.09;5052371;28;20096;-78
2023/04/19 06:48:51;;;;;;;10.00;6.82;;;;;;;14.21;51.79;102638.75;5052525;28;20094;-80
2023/04/19 06:51:17;;;;;;;10.48;6.18;;;;;;;14.39;50.27;102631.81;5052697;28;20025;-78
2023/04/19 06:53:43;;;;;;;8.70;5.97;;;;;;;14.45;49.56;102632.34;5052431;28;20501;-77
2023/04/19 06:56:09;;;;;;;9.57;6.25;;;;;;;14.39;49.47;102640.44;5052267;28;20021;-78
2023/04/19 06:58:34;;;;;;;9.50;6.53;;;;;;;14.91;49.60;102623.03;5052240;28;20067;-78
2023/04/19 07:01:02;;;;;;;8.45;6.50;;;;;;;15.33;47.24;102632.06;5052003;28;20052;-80
2023/04/19 07:03:31;;;;;;;9.40;6.15;;;;;;;15.14;47.81;102629.63;5050729;28;20040;-78
2023/04/19 07:05:56;;;;;;;10.30;6.40;;;;;;;15.35;47.49;102640.66;5052781;28;20033;-79
2023/04/19 07:08:26;;;;;;;9.43;6.40;;;;;;;15.72;46.46;102634.25;5052616;28;20090;-76
2023/04/19 07:10:51;;;;;;;10.73;6.25;;;;;;;15.48;45.54;102646.84;5050788;28;20029;-75
2023/04/19 07:13:17;;;;;;;8.85;6.40;;;;;;;14.11;47.72;102617.56;5046811;28;20128;-74
2023/04/19 07:15:42;;;;;;;10.00;6.38;;;;;;;13.03;50.85;102646.00;5032813;28;20036;-75
2023/04/19 07:18:09;;;;;;;9.57;6.78;;;;;;;12.31;52.98;102642.16;5033048;28;20057;-77
2023/04/19 07:20:35;;;;;;;10.70;6.70;;;;;;;11.75;54.91;102634.88;5032131;28;20067;-77
2023/04/19 07:23:03;;;;;;;10.35;7.15;;;;;;;11.28;55.58;102641.00;5032764;28;20017;-77
2023/04/19 07:25:29;;;;;;;10.90;7.07;;;;;;;10.55;56.21;102572.97;5032168;28;20037;-77
2023/04/19 07:27:55;;;;;;;10.10;6.70;;;;;;;10.66;56.72;102624.25;5030781;28;20487;-79
2023/04/19 07:30:23;;;;;;;11.07;6.90;;;;;;;10.66;57.70;102636.34;5031306;28;20033;-80
2023/04/19 07:36:16;;;;;;;9.77;6.80;;;;;;;9.69;57.47;102514.75;5032041;28;20040;-79
2023/04/19 07:38:42;;;;;;;11.98;6.43;;;;;;;10.48;58.54;102638.66;5038309;28;20402;-79
2023/04/19 07:41:07;;;;;;;9.65;7.05;;;;;;;10.17;58.05;102592.31;5049978;28;20017;-79
2023/04/19 07:43:33;;;;;;;9.05;6.35;;;;;;;10.24;57.93;102608.50;5051877;28;20028;-78
2023/04/19 07:46:02;;;;;;;8.95;6.55;;;;;;;10.33;58.87;102623.69;5052023;28;20043;-81
2023/04/19 07:48:28;;;;;;;9.02;6.45;;;;;;;10.26;58.87;102593.78;5052015;28;20031;-82
2023/04/19 07:55:00;;;;;;;10.00;6.43;;;;;;;10.51;57.54;102638.53;5052297;28;20059;-77
2023/04/19 07:57:25;;;;;;;10.70;6.53;;;;;;;10.42;57.36;102610.47;5098294;22;20168;-79
2023/04/19 07:59:53;;;;;;;9.30;6.95;;;;;;;9.38;59.04;102425.50;5106133;22;20132;-89
2023/04/19 08:02:19;;;;;;;12.55;6.47;;;;;;;9.98;57.38;102506.91;5052342;28;20072;-93
2023/04/19 08:04:48;;;;;;;10.98;6.85;;;;;;;10.36;56.39;102550.41;5051240;28;20390;-89
2023/04/19 08:07:26;;;;;;;10.77;6.88;;;;;;;9.97;56.65;102500.06;5051746;28;20021;-79
2023/04/19 08:09:52;;;;;;;12.40;6.32;;;;;;;9.57;56.96;102412.84;5052014;28;20025;-92
2023/04/19 08:12:18;;;;;;;10.95;6.50;;;;;;;10.81;56.00;102617.69;5075910;22;20150;-91
2023/04/19 08:14:43;;;;;;;11.15;6.38;;;;;;;10.63;55.51;102580.47;5055708;28;20466;-81
2023/04/19 08:17:08;;;;;;;9.90;6.68;;;;;;;10.18;55.84;102511.38;5055694;28;20441;-90
2023/04/19 08:19:34;;;;;;;9.77;6.07;;;;;;;10.40;54.68;102532.16;5055779;28;20048;-90
2023/04/19 08:21:59;;;;;;;9.82;6.35;;;;;;;11.06;55.14;102631.44;5055744;28;20462;-90
2023/04/19 08:24:25;;;;;;;9.95;6.03;;;;;;;11.02;54.30;102605.78;5056141;28;20071;-91
2023/04/19 08:26:53;;;;;;;9.77;5.93;;;;;;;11.21;54.20;102627.47;5055697;28;20471;-90
2023/04/19 08:29:20;;;;;;;10.13;6.60;;;;;;;10.76;53.42;102550.69;5055663;28;20086;-80
2023/04/19 08:31:48;;;;;;;8.95;6.15;;;;;;;11.02;53.57;102583.34;5053555;28;20029;-79
2023/04/19 08:34:16;;;;;;;8.40;6.22;;;;;;;11.35;54.34;102619.19;5056054;28;20055;-88
2023/04/19 08:36:42;;;;;;;10.52;6.03;;;;;;;11.05;52.57;102567.72;5055607;28;20104;-87
2023/04/19 08:39:07;;;;;;;8.38;5.82;;;;;;;11.16;52.15;102586.25;5054163;28;20051;-79
2023/04/19 08:41:33;;;;;;;10.00;5.90;;;;;;;11.01;53.57;102545.47;5055493;28;20513;-81
2023/04/19 08:44:01;;;;;;;8.65;5.55;;;;;;;11.29;50.66;102578.88;5055212;28;20032;-89
2023/04/19 08:46:54;;;;;;;9.40;5.53;;;;;;;11.27;51.54;102572.06;5036660;28;20581;-79
2023/04/19 08:56:42;;;;;;;8.20;4.57;;;;;;;11.64;49.62;102624.09;5054760;28;20036;-79
2023/04/19 08:59:33;;;;;;;9.45;4.88;;;;;;;11.59;49.51;102623.41;5054836;28;20024;-84
2023/04/19 09:06:23;;;;;;;7.37;4.37;;;;;;;10.37;50.06;102416.06;5013019;28;20045;-80
2023/04/19 09:12:50;;;;;;;7.25;4.35;;;;;;;11.68;50.00;102617.88;5015756;28;20525;-82
2023/04/19 09:15:44;;;;;;;8.02;4.70;;;;;;;11.64;48.90;102621.50;5012790;28;20108;-80
2023/04/19 09:19:00;;;;;;;6.50;4.57;;;;;;;11.65;47.49;102612.84;5012592;28;20450;-83
2023/04/19 09:21:30;;;;;;;8.57;4.20;;;;;;;11.58;47.00;102597.59;5012815;28;20171;-80
2023/04/19 09:23:56;;;;;;;7.45;4.13;;;;;;;10.30;47.82;102396.53;4995198;28;20042;-80
2023/04/19 09:26:21;;;;;;;9.68;4.35;;;;;;;11.71;48.48;102611.78;5012105;28;20041;-81
2023/04/19 09:29:06;;;;;;;9.48;4.78;;;;;;;11.43;48.11;102574.03;5012271;28;20026;-80
2023/04/19 09:31:35;;;;;;;7.28;4.50;;;;;;;11.56;47.01;102597.66;4996656;28;20034;-80
2023/04/19 09:34:17;;;;;;;9.48;4.63;;;;;;;11.52;48.76;102584.94;5012395;28;20034;-81
2023/04/19 09:36:43;;;;;;;8.07;4.13;;;;;;;11.70;48.48;102613.53;5037530;28;20040;-80
2023/04/19 09:39:09;;;;;;;8.27;4.03;;;;;;;11.76;48.77;102615.00;5053936;28;20044;-80
2023/04/19 09:41:51;;;;;;;7.72;4.03;;;;;;;11.75;47.84;102614.16;5054230;28;20378;-82
2023/04/19 09:44:16;;;;;;;;;;;;;;;11.83;48.95;102613.06;5054536;28;20021;-81
2023/04/19 09:46:47;;;;;;;8.30;4.43;;;;;;;11.93;48.34;102612.63;5053963;28;19916;-81
2023/04/19 09:49:16;;;;;;;8.00;3.83;;;;;;;11.90;46.13;102611.91;5053995;28;20029;-80
2023/04/19 09:51:48;;;;;;;6.82;4.13;;;;;;;11.41;45.61;102547.38;5052664;28;20043;-80
2023/04/19 09:54:15;;;;;;;5.82;3.78;;;;;;;11.83;46.78;102595.78;5053894;28;20032;-84
2023/04/19 09:56:41;;;;;;;7.53;3.80;;;;;;;11.61;45.62;102538.00;5053860;28;20309;-82
2023/04/19 09:59:12;;;;;;;8.05;4.00;;;;;;;11.96;45.94;102601.31;5053617;28;20040;-80
2023/04/19 10:01:52;;;;;;;11.20;3.80;;;;;;;11.84;45.27;102591.44;5053634;28;20032;-81
2023/04/19 10:04:22;;;;;;;7.20;3.70;;;;;;;11.81;43.44;102600.19;5053702;28;20071;-81
2023/04/19 10:06:50;;;;;;;7.13;3.70;;;;;;;11.70;44.74;102568.66;5053548;28;20025;-80
2023/04/19 10:09:17;;;;;;;6.53;3.55;;;;;;;11.19;45.09;102505.97;5053609;28;20089;-80
2023/04/19 10:11:53;;;;;;;6.43;3.45;;;;;;;11.71;46.31;102583.31;5053387;28;20556;-80
2023/04/19 10:14:23;;;;;;;5.88;3.00;;;;;;;11.49;44.66;102549.66;5053081;28;20128;-82
2023/04/19 10:16:49;;;;;;;5.80;3.03;;;;;;;11.50;46.40;102551.31;5053536;28;20384;-81
2023/04/19 10:19:17;;;;;;;8.10;3.58;;;;;;;11.83;47.03;102593.19;5054370;28;20081;-81
2023/04/19 10:21:46;;;;;;;6.32;3.22;;;;;;;11.84;45.80;102594.88;5053692;28;20036;-83
2023/04/19 10:24:13;;;;;;;5.18;2.60;;;;;;;11.85;44.17;102590.53;5054130;28;20033;-81
2023/04/19 10:27:04;;;;;;;5.85;2.50;;;;;;;11.98;46.44;102591.72;5055057;28;20104;-83
2023/04/19 10:29:54;;;;;;;5.90;2.30;;;;;;;11.91;40.81;102598.91;5053199;28;20039;-83
2023/04/19 10:32:23;;;;;;;3.28;2.05;;;;;;;11.62;40.57;102547.44;5051990;28;20033;-84
2023/04/19 10:35:37;;;;;;;;;;;;;;;;;;;;;
2023/04/19 10:38:29;;;;;;;4.53;1.90;;;;;;;11.92;40.03;102581.63;5011450;28;20045;-87
2023/04/19 10:41:45;;;;;;;3.60;2.00;;;;;;;11.62;40.02;102525.00;5053206;28;20040;-91
2023/04/19 10:44:19;;;;;;;6.53;2.40;;;;;;;11.33;41.13;102461.47;5018737;28;20055;-80
2023/04/19 10:47:00;;;;;;;6.47;2.78;;;;;;;11.53;41.62;102485.72;5052715;28;20466;-80
2023/04/19 10:50:06;;;;;;;5.45;2.25;;;;;;;12.12;41.57;102589.41;5052782;28;20029;-83
2023/04/19 10:52:50;;;;;;;6.50;2.13;;;;;;;12.11;40.45;102582.56;5052964;28;20036;-81
2023/04/19 10:55:51;;;;;;;6.20;2.25;;;;;;;11.38;41.51;102490.56;5052868;28;20493;-82
2023/04/19 11:01:43;;;;;;;4.53;2.20;;;;;;;11.73;40.76;102530.56;5052634;28;20040;-82
2023/04/19 11:04:46;;;;;;;6.30;2.75;;;;;;;12.14;42.56;102576.41;5052678;28;20075;-83
2023/04/19 11:07:57;;;;;;;6.82;3.13;;;;;;;11.71;41.96;102513.44;5052543;28;20107;-80
2023/04/19 12:05:51;;;;;;;5.93;2.83;;;;;;;12.54;38.77;102496.06;5283579;22;20057;-81
2023/04/19 12:08:17;;;;;;;4.85;2.78;;;;;;;12.45;37.81;102461.94;5034267;28;20033;-82
2023/04/19 12:10:56;;;;;;;5.40;2.80;;;;;;;12.65;38.27;102474.84;5035912;28;20022;-84
2023/04/19 12:13:21;;;;;;;4.60;2.70;;;;;;;12.30;35.96;102428.06;5034515;28;20112;-81
2023/04/19 12:15:47;;;;;;;3.17;2.10;;;;;;;12.83;37.33;102505.13;5035308;28;20105;-82
2023/04/19 12:18:15;;;;;;;4.60;2.33;;;;;;;11.59;36.91;102294.81;5232831;22;20128;-85
2023/04/19 12:23:31;;;;;;;5.28;2.85;;;;;;;12.17;35.87;102393.22;5055007;22;20061;-82
2023/04/19 12:26:25;;;;;;;5.43;2.87;;;;;;;12.80;36.21;102491.47;5015416;28;20022;-80
2023/04/19 12:29:06;;;;;;;6.03;2.60;;;;;;;12.27;35.41;102407.44;5015172;28;20053;-80
2023/04/19 12:31:59;;;;;;;5.55;2.70;;;;;;;12.81;35.84;102490.53;5015297;28;20475;-81
2023/04/19 12:34:54;;;;;;;5.70;2.58;;;;;;;12.28;34.99;102408.28;5015378;28;20072;-81
2023/04/19 12:37:19;;;;;;;6.82;3.20;;;;;;;12.82;35.06;102477.50;5015251;28;20033;-82
2023/04/19 12:43:19;;;;;;;9.55;3.08;;;;;;;12.32;33.87;102387.38;5291392;22;20061;-81
2023/04/19 12:46:35;;;;;;;4.22;2.63;;;;;;;12.91;34.73;102486.63;5054953;28;20036;-82
2023/04/19 12:49:19;;;;;;;5.72;2.80;;;;;;;12.45;35.07;102400.59;5053701;28;20025;-81
2023/04/19 12:52:17;;;;;;;6.10;2.88;;;;;;;12.26;34.97;102345.34;5054792;28;20050;-88
2023/04/19 12:54:52;;;;;;;5.50;2.67;;;;;;;12.19;34.53;102325.81;4973995;28;20042;-90
2023/04/19 12:57:25;;;;;;;5.07;2.40;;;;;;;13.10;33.30;102466.69;5077769;22;20053;-83
2023/04/19 13:03:58;;;;;;;5.53;2.80;;;;;;;11.96;33.58;102231.91;4973608;28;20038;-87
2023/04/19 13:21:43;;;;;;;6.07;2.30;;;;;;;13.42;31.34;102422.81;5032346;28;20572;-88